This is the latest recevied weather packets stored in our database for station/object KD7DVD-1. If no packets are shown the sender has not sent any weather packets the latest 10 day(s).
| Time | Temp. | Humidity | Pressure | Rain* | Wind** | Luminosity | Snow |
|---|---|---|---|---|---|---|---|
| 1788390017 | 15.56° C | 90% | 1004.4 hPa | 2.03 mm | - | - | - |
| 1788388216 | 15.56° C | 89% | 1004.2 hPa | 1.78 mm | - | - | - |
| 1788386421 | 16.11° C | 88% | 1004.3 hPa | 1.78 mm | - | - | - |
| 1788384616 | 16.67° C | 85% | 1004.5 hPa | 0.76 mm | - | - | - |
| 1788382817 | 18.33° C | 79% | 1004.2 hPa | 0 mm | - | - | - |
| 1788381021 | 18.89° C | 80% | 1004.1 hPa | 0 mm | - | - | - |
| 1788379220 | 18.33° C | 81% | 1004.4 hPa | 0 mm | - | - | - |
| 1788377435 | 20.56° C | 64% | 1004.8 hPa | 0 mm | - | - | - |
| 1788375621 | 20.56° C | 61% | 1004.4 hPa | 0 mm | - | - | - |
| 1788373824 | 18.89° C | 67% | 1004.8 hPa | 0 mm | - | - | - |
| 1788372021 | 18.89° C | 69% | 1005.2 hPa | 0 mm | - | - | - |
| 1788370221 | 18.89° C | 69% | 1005.4 hPa | 0 mm | - | - | - |
| 1788368417 | 18.33° C | 73% | 1005.6 hPa | 0 mm | - | - | - |
| 1788366616 | 18.33° C | 75% | 1005.9 hPa | 0 mm | - | - | - |
| 1788364820 | 17.78° C | 78% | 1006 hPa | 0 mm | - | - | - |
| 1788363020 | 16.67° C | 84% | 1006.4 hPa | 0 mm | - | - | - |
| 1788361215 | 15° C | 89% | 1006.7 hPa | 0 mm | - | - | - |
| 1788359416 | 14.44° C | 91% | 1007.2 hPa | 0 mm | - | - | - |
| 1788357622 | 13.89° C | 91% | 1007.2 hPa | 0 mm | - | - | - |
| 1788355822 | 13.89° C | 90% | 1007.2 hPa | 0 mm | - | - | - |
| 1788354022 | 14.44° C | 90% | 1007.5 hPa | 0 mm | - | - | - |
| 1788352217 | 14.44° C | 91% | 1007.7 hPa | 0 mm | - | - | - |
| 1788350417 | 14.44° C | 91% | 1007.8 hPa | 0 mm | - | - | - |
| 1788348617 | 14.44° C | 91% | 1008 hPa | 0 mm | - | - | - |
| 1788346822 | 14.44° C | 90% | 1008.2 hPa | 0 mm | - | - | - |
* Rain latest hour (hover to see other rain measurements)
** Current wind speed in m/s (hover to see current wind gust speed)